Terminal Aerodrome Forecast
Issued by NWS

Home | Current Version | Previous Version | Text Only | Print | Product List | Glossary On
Versions: 1 2 3 4 5 6 7 8 9 10 11 12 13 14 15 16 17 18 19 20 21 22 23
691
FTUS43 KDLH 061733
TAFBRD
TAF
KBRD 061733Z 0618/0718 19011KT P6SM OVC100
     FM062100 20012KT 6SM -SN SCT040 OVC060
     FM070000 21012KT P6SM OVC060 WS020/25040KT
     FM070500 24012KT P6SM OVC012 WS020/28035KT
     FM070900 25015KT 4SM -SN OVC015
     FM071500 28015G23KT 2SM -SN OVC015=

USA.gov is the U.S. government's official web portal to all federal, state and local government web resources and services.